createdAt,value
2018-11-12T00:02:27.302Z,101001.67
2018-11-12T00:05:05.114Z,101007.30
2018-11-12T00:07:35.991Z,101014.41
2018-11-12T00:10:12.721Z,101019.83
2018-11-12T00:13:00.751Z,101023.45
2018-11-12T00:15:31.859Z,101030.08
2018-11-12T00:18:08.038Z,101029.02
2018-11-12T00:20:40.538Z,101030.22
2018-11-12T00:23:18.482Z,101040.67
2018-11-12T00:25:58.562Z,101049.46
2018-11-12T00:28:34.514Z,101046.23
2018-11-12T00:31:05.633Z,101052.92
2018-11-12T00:33:45.045Z,101048.12
2018-11-12T00:38:53.472Z,101055.53
2018-11-12T00:41:31.832Z,101052.34
2018-11-12T00:46:42.850Z,101054.94
2018-11-12T00:49:14.788Z,101057.95
2018-11-12T00:51:49.095Z,101062.04
2018-11-12T00:54:29.434Z,101061.04
2018-11-12T03:26:12.051Z,101158.98
2018-11-12T03:28:43.672Z,101165.73
2018-11-12T03:31:14.869Z,101171.11
2018-11-12T03:33:47.300Z,101178.30
2018-11-12T03:36:21.626Z,101172.16
2018-11-12T03:38:52.775Z,101180.91
2018-11-12T03:41:27.217Z,101194.09
2018-11-12T03:43:58.190Z,101191.12
2018-11-12T03:46:30.386Z,101197.98
2018-11-12T03:49:01.319Z,101198.55
2018-11-12T03:51:34.909Z,101205.22
2018-11-12T03:54:06.452Z,101202.48
2018-11-12T03:56:37.398Z,101193.67
2018-11-12T03:59:08.071Z,101196.90
2018-11-12T04:01:48.059Z,101200.02
2018-11-12T04:04:19.085Z,101191.89
2018-11-12T04:06:49.686Z,101190.01
2018-11-12T04:09:22.523Z,101202.06
2018-11-12T04:11:53.504Z,101214.30
2018-11-12T04:14:24.626Z,101217.36
2018-11-12T04:16:55.205Z,101224.67
2018-11-12T04:19:28.259Z,101233.05
2018-11-12T04:21:59.252Z,101218.27
2018-11-12T04:24:30.908Z,101224.19
2018-11-12T04:27:02.032Z,101234.84
2018-11-12T04:29:36.332Z,101234.55
2018-11-12T04:32:07.345Z,101227.50
2018-11-12T04:34:38.310Z,101231.39
2018-11-12T04:37:10.071Z,101242.78
2018-11-12T04:39:42.030Z,101248.48
2018-11-12T04:42:13.390Z,101240.90
2018-11-12T04:44:44.907Z,101242.36
2018-11-12T04:47:16.283Z,101233.69
2018-11-12T04:49:48.638Z,101220.10
2018-11-12T04:52:21.326Z,101224.82
2018-11-12T04:54:52.819Z,101239.33
2018-11-12T04:57:25.348Z,101255.75
2018-11-12T04:59:57.005Z,101248.13
2018-11-12T05:02:30.254Z,101257.31
2018-11-12T05:05:03.006Z,101250.49
2018-11-12T05:07:34.611Z,101243.34
2018-11-12T05:10:09.452Z,101239.41
2018-11-12T05:12:42.538Z,101231.94
2018-11-12T05:15:23.297Z,101238.51
2018-11-12T05:18:08.188Z,101249.09
2018-11-12T05:20:38.806Z,101273.33
2018-11-12T05:23:10.036Z,101259.14
2018-11-12T05:25:46.787Z,101266.34
2018-11-12T05:28:22.528Z,101258.17
2018-11-12T05:30:55.628Z,101254.50
2018-11-12T05:33:29.414Z,101258.23
2018-11-12T05:36:00.856Z,101250.84
2018-11-12T05:38:32.724Z,101248.65
2018-11-12T05:41:04.814Z,101262.40
2018-11-12T05:43:36.915Z,101264.64
2018-11-12T05:46:08.072Z,101277.98
2018-11-12T05:48:39.692Z,101283.34
2018-11-12T05:51:10.905Z,101290.27
2018-11-12T05:53:43.373Z,101287.87
2018-11-12T05:59:02.343Z,101276.70
2018-11-12T06:01:35.965Z,101279.83
2018-11-12T06:04:18.013Z,101290.89
2018-11-12T06:09:29.475Z,101285.82
2018-11-12T06:12:01.327Z,101285.95
2018-11-12T06:14:34.624Z,101296.55
2018-11-12T06:23:20.121Z,101298.23
2018-11-12T06:25:59.435Z,101291.59
2018-11-12T06:28:36.931Z,101296.67
2018-11-12T06:31:09.936Z,101299.13
2018-11-12T06:33:48.243Z,101300.41
2018-11-12T06:36:30.834Z,101299.99
2018-11-12T06:39:05.374Z,101302.48
2018-11-12T06:41:37.193Z,101299.98
2018-11-12T06:46:49.979Z,101302.67
2018-11-12T06:52:10.969Z,101299.98
2018-11-12T06:54:45.224Z,101301.91
2018-11-12T06:57:17.165Z,101308.18
2018-11-12T06:59:49.103Z,101307.47
2018-11-12T07:02:20.839Z,101300.54
2018-11-12T07:04:53.201Z,101286.31
2018-11-12T07:07:28.230Z,101298.37
2018-11-12T07:10:10.708Z,101306.00
2018-11-12T07:12:52.312Z,101316.08
2018-11-12T07:15:45.734Z,101307.34
2018-11-12T07:21:16.464Z,101296.89
2018-11-12T07:23:49.030Z,101305.70
2018-11-12T07:26:27.757Z,101299.16
2018-11-12T07:29:03.789Z,101302.89
2018-11-12T07:31:35.574Z,101286.40
2018-11-12T07:34:09.588Z,101282.16
2018-11-12T07:42:05.086Z,101285.82
2018-11-12T07:44:37.737Z,101282.56
2018-11-12T07:47:11.423Z,101280.30
2018-11-12T07:49:48.672Z,101286.59
2018-11-12T07:52:30.066Z,101287.28
2018-11-12T07:55:03.774Z,101281.79
2018-11-12T07:57:40.294Z,101290.53
2018-11-12T08:00:35.034Z,101289.96
2018-11-12T08:03:12.782Z,101285.80
2018-11-12T10:20:33.219Z,101266.36
2018-11-12T10:23:05.314Z,101263.55
2018-11-12T10:25:41.225Z,101263.95
2018-11-12T10:28:21.268Z,101266.44
2018-11-12T10:30:55.662Z,101261.11
2018-11-12T10:33:28.014Z,101262.66
2018-11-12T10:36:02.484Z,101260.42
2018-11-12T10:38:35.379Z,101253.45
2018-11-12T10:41:08.900Z,101247.88
2018-11-12T10:43:40.368Z,101248.50
2018-11-12T10:46:12.027Z,101243.44
2018-11-12T10:48:43.711Z,101246.22
2018-11-12T10:51:16.931Z,101250.16
2018-11-12T10:53:57.767Z,101239.98
2018-11-12T10:56:34.410Z,101240.75
2018-11-12T11:02:57.857Z,101232.70
2018-11-12T11:05:43.022Z,101231.52
2018-11-12T11:13:49.133Z,101208.44
2018-11-12T11:16:26.170Z,101212.38
2018-11-12T11:19:24.307Z,101203.50
2018-11-12T11:22:14.468Z,101190.30
2018-11-12T11:51:56.342Z,101193.08
2018-11-12T11:54:34.758Z,101196.17
2018-11-12T11:57:27.888Z,101189.13
2018-11-12T12:00:08.315Z,101186.09
2018-11-12T12:02:43.590Z,101183.25
2018-11-12T12:05:23.653Z,101181.14
2018-11-12T12:07:59.346Z,101179.63
2018-11-12T12:10:32.108Z,101182.73
2018-11-12T12:13:05.981Z,101182.89
2018-11-12T12:22:19.724Z,101172.15
2018-11-12T12:25:29.074Z,101165.20
2018-11-12T12:28:08.696Z,101161.66
2018-11-12T12:30:51.174Z,101151.84
2018-11-12T12:33:32.592Z,101155.31
2018-11-12T12:36:13.877Z,101155.39
2018-11-12T12:41:50.008Z,101154.61
2018-11-12T12:54:06.925Z,101136.39
2018-11-12T12:59:52.340Z,101145.38
2018-11-12T13:02:36.793Z,101139.35
2018-11-12T13:28:57.093Z,101136.83
2018-11-12T13:58:24.598Z,101109.73
2018-11-12T15:47:13.198Z,101068.77
2018-11-12T15:58:07.088Z,101061.13
2018-11-12T16:56:25.299Z,101087.33
2018-11-12T17:40:03.134Z,101164.91
2018-11-12T18:05:10.589Z,101179.02
2018-11-12T18:23:56.823Z,101199.28
2018-11-12T18:35:36.192Z,101213.14
2018-11-12T18:38:29.361Z,101207.73
2018-11-12T18:50:33.308Z,101219.20
2018-11-12T18:53:21.418Z,101216.43
2018-11-12T18:56:16.574Z,101237.89
2018-11-12T18:59:22.697Z,101251.72
2018-11-12T19:11:42.202Z,101273.32
2018-11-12T19:14:39.112Z,101270.91
2018-11-12T19:20:37.677Z,101283.44
2018-11-12T19:23:36.858Z,101275.07
2018-11-12T19:32:12.386Z,101288.90
2018-11-12T19:35:08.987Z,101307.48
2018-11-12T20:27:56.687Z,101370.70
2018-11-12T20:40:18.553Z,101383.11
2018-11-12T20:55:33.289Z,101394.12
2018-11-12T20:58:30.920Z,101408.03
2018-11-12T21:01:18.601Z,101411.91
2018-11-12T21:06:57.602Z,101422.72
2018-11-12T21:09:44.472Z,101415.00
2018-11-12T21:12:35.907Z,101403.73
2018-11-12T21:18:05.150Z,101406.18
2018-11-12T21:20:57.052Z,101416.91
2018-11-12T21:23:57.224Z,101427.77
2018-11-12T21:26:34.811Z,101441.56
2018-11-12T21:32:15.112Z,101446.26
2018-11-12T21:35:05.362Z,101448.88
2018-11-12T21:37:53.112Z,101461.58
2018-11-12T21:40:38.080Z,101456.98
2018-11-12T21:43:24.892Z,101449.80
2018-11-12T21:46:10.709Z,101454.63
2018-11-12T21:48:53.963Z,101452.00
2018-11-12T21:51:29.645Z,101450.86
2018-11-12T21:54:09.905Z,101455.61
2018-11-12T21:56:44.353Z,101451.66
2018-11-12T22:02:29.735Z,101463.38
2018-11-12T22:05:27.551Z,101480.36
2018-11-12T22:11:01.758Z,101467.94
2018-11-12T22:13:44.180Z,101465.19
2018-11-12T22:19:33.913Z,101460.02
2018-11-12T22:28:04.333Z,101474.09
2018-11-12T22:30:46.776Z,101474.06
2018-11-12T22:33:30.988Z,101479.59
2018-11-12T22:36:03.317Z,101489.81
2018-11-12T22:38:47.957Z,101483.81
2018-11-12T22:41:31.965Z,101483.75
2018-11-12T22:44:15.913Z,101491.80
2018-11-12T22:46:53.833Z,101475.81
2018-11-12T22:49:36.431Z,101487.63
2018-11-12T22:52:24.911Z,101487.76
2018-11-12T22:55:05.794Z,101480.22
2018-11-12T22:57:43.735Z,101483.38
2018-11-12T23:00:29.971Z,101485.02
2018-11-12T23:03:02.832Z,101478.72
2018-11-12T23:05:36.674Z,101481.16
2018-11-12T23:08:09.665Z,101482.95
2018-11-12T23:10:45.323Z,101481.98
2018-11-12T23:13:19.589Z,101489.66
2018-11-12T23:15:57.018Z,101483.05
2018-11-12T23:18:33.385Z,101488.50
2018-11-12T23:21:06.244Z,101489.25
2018-11-12T23:23:41.480Z,101477.75
2018-11-12T23:26:15.158Z,101493.18
2018-11-12T23:29:07.599Z,101498.78
2018-11-12T23:31:45.950Z,101505.92
2018-11-12T23:34:24.389Z,101495.14
2018-11-12T23:37:06.029Z,101498.63
2018-11-12T23:39:42.110Z,101481.80
2018-11-12T23:42:19.069Z,101477.75
2018-11-12T23:44:51.483Z,101477.27
2018-11-12T23:49:28.425Z,101484.08
2018-11-12T23:54:52.882Z,101501.44
2018-11-12T23:57:26.472Z,101497.42
2018-11-12T23:59:59.304Z,101500.91
